Terminal Aerodrome Forecast
Issued by NWS

Home | Current Version | Previous Version | Text Only | Print | Product List | Glossary On
Versions: 1 2 3 4 5 6 7 8 9 10 11 12 13
000
FTUS45 KPIH 281129
TAFSUN
TAF
KSUN 281129Z 2812/2912 31008KT P6SM SKC WS002/17020KT
     FM281500 30009G18KT P6SM SCT060 SCT120
     FM282000 26013G25KT P6SM SCT120
     FM290400 31008KT P6SM SKC
      AMD LTD TO CLD VIS AND WIND TIL 281300=

USA.gov is the U.S. government's official web portal to all federal, state and local government web resources and services.